createdAt,value
2023-04-16T00:00:54.233Z,100475.81
2023-04-16T00:03:22.146Z,100400.28
2023-04-16T00:05:50.148Z,100431.97
2023-04-16T00:08:17.973Z,100480.81
2023-04-16T00:10:47.270Z,100481.59
2023-04-16T00:13:15.081Z,100481.59
2023-04-16T00:15:42.865Z,100474.41
2023-04-16T00:18:10.669Z,100475.03
2023-04-16T00:20:38.506Z,100479.81
2023-04-16T00:23:06.308Z,100477.41
2023-04-16T00:25:34.213Z,100453.16
2023-04-16T00:28:03.402Z,100478.44
2023-04-16T00:30:31.326Z,100476.47
2023-04-16T00:32:59.719Z,100469.06
2023-04-16T00:35:28.189Z,100455.31
2023-04-16T00:37:56.244Z,100475.28
2023-04-16T00:40:24.334Z,100490.53
2023-04-16T00:42:52.766Z,100484.16
2023-04-16T00:45:21.952Z,100480.63
2023-04-16T00:47:50.060Z,100481.34
2023-04-16T00:50:20.300Z,100485.56
2023-04-16T00:52:48.521Z,100480.31
2023-04-16T00:55:18.589Z,100490.78
2023-04-16T00:57:46.987Z,100490.91
2023-04-16T01:00:15.467Z,100489.06
2023-04-16T01:02:44.815Z,100491.78
2023-04-16T01:05:12.686Z,100493.47
2023-04-16T01:07:40.630Z,100491.34
2023-04-16T01:10:09.225Z,100490.78
2023-04-16T01:12:37.311Z,100498.13
2023-04-16T01:15:05.935Z,100489.88
2023-04-16T01:17:33.776Z,100503.81
2023-04-16T01:20:03.067Z,100508.41
2023-04-16T01:22:32.449Z,100504.81
2023-04-16T01:25:00.864Z,100512.69
2023-04-16T01:27:28.679Z,100507.44
2023-04-16T01:29:56.953Z,100510.44
2023-04-16T01:32:36.559Z,100506.63
2023-04-16T01:35:04.827Z,100499.53
2023-04-16T01:37:34.027Z,100515.31
2023-04-16T01:40:02.057Z,100512.94
2023-04-16T01:42:30.498Z,100504.06
2023-04-16T01:44:58.362Z,100512.81
2023-04-16T01:47:26.216Z,100506.88
2023-04-16T01:49:54.228Z,100493.44
2023-04-16T01:52:22.065Z,100526.22
2023-04-16T01:54:51.236Z,100522.63
2023-04-16T01:57:19.126Z,100529.34
2023-04-16T01:59:47.462Z,100510.00
2023-04-16T02:02:17.441Z,100535.25
2023-04-16T02:04:46.532Z,100534.50
2023-04-16T02:07:14.476Z,100534.66
2023-04-16T02:09:42.580Z,100528.47
2023-04-16T02:12:12.453Z,100524.97
2023-04-16T02:14:40.600Z,100529.41
2023-04-16T02:17:08.458Z,100524.59
2023-04-16T02:19:41.747Z,100538.81
2023-04-16T02:22:10.948Z,100541.28
2023-04-16T02:24:38.758Z,100541.03
2023-04-16T02:27:11.258Z,100535.03
2023-04-16T02:29:39.670Z,100533.34
2023-04-16T02:32:15.435Z,100529.81
2023-04-16T02:34:46.007Z,100530.47
2023-04-16T02:37:15.652Z,100527.00
2023-04-16T02:39:44.031Z,100537.97
2023-04-16T02:42:13.281Z,100538.53
2023-04-16T02:44:41.487Z,100542.69
2023-04-16T02:47:09.359Z,100509.81
2023-04-16T02:49:37.250Z,100548.44
2023-04-16T02:52:05.426Z,100541.84
2023-04-16T02:54:33.247Z,100551.06
2023-04-16T02:57:02.278Z,100556.28
2023-04-16T02:59:31.541Z,100561.38
2023-04-16T03:01:59.614Z,100555.81
2023-04-16T03:04:27.573Z,100555.78
2023-04-16T03:06:55.524Z,100547.88
2023-04-16T03:09:23.310Z,100547.00
2023-04-16T03:11:51.210Z,100545.31
2023-04-16T03:14:19.155Z,100513.53
2023-04-16T03:16:48.348Z,100550.47
2023-04-16T03:19:16.206Z,100547.06
2023-04-16T03:21:44.694Z,100546.91
2023-04-16T03:24:12.555Z,100548.63
2023-04-16T03:26:40.558Z,100465.53
2023-04-16T03:29:08.760Z,100536.38
2023-04-16T03:31:37.054Z,100536.34
2023-04-16T03:34:06.694Z,100542.31
2023-04-16T03:36:35.419Z,100544.00
2023-04-16T03:39:03.217Z,100462.72
2023-04-16T03:41:31.352Z,100545.22
2023-04-16T03:44:00.143Z,100544.00
2023-04-16T03:46:28.009Z,100507.31
2023-04-16T03:48:55.986Z,100551.03
2023-04-16T03:51:26.388Z,100556.50
2023-04-16T03:53:54.232Z,100521.50
2023-04-16T03:56:22.572Z,100558.47
2023-04-16T03:58:52.617Z,100543.63
2023-04-16T04:01:20.482Z,100552.13
2023-04-16T04:03:48.502Z,100534.53
2023-04-16T04:06:17.097Z,100549.72
2023-04-16T04:08:46.419Z,100576.72
2023-04-16T04:11:15.179Z,100572.50
2023-04-16T04:13:44.704Z,100555.22
2023-04-16T04:16:12.599Z,100584.16
2023-04-16T04:18:40.502Z,100566.63
2023-04-16T04:21:09.461Z,100571.88
2023-04-16T04:23:38.113Z,100559.34
2023-04-16T04:26:08.833Z,100512.56
2023-04-16T04:28:36.791Z,100582.69
2023-04-16T04:31:05.785Z,100583.03
2023-04-16T04:33:33.814Z,100593.81
2023-04-16T04:36:01.695Z,100592.16
2023-04-16T04:38:30.438Z,100590.34
2023-04-16T04:40:59.156Z,100599.97
2023-04-16T04:43:30.711Z,100601.41
2023-04-16T04:45:58.578Z,100602.09
2023-04-16T04:48:28.477Z,100602.22
2023-04-16T04:50:56.705Z,100617.66
2023-04-16T04:53:24.949Z,100618.28
2023-04-16T04:55:55.586Z,100613.97
2023-04-16T04:58:26.705Z,100623.75
2023-04-16T05:00:55.996Z,100610.16
2023-04-16T05:03:23.906Z,100602.38
2023-04-16T05:05:51.859Z,100613.66
2023-04-16T05:08:19.653Z,100626.44
2023-04-16T05:10:47.455Z,100626.66
2023-04-16T05:13:15.251Z,100633.34
2023-04-16T05:15:43.157Z,100639.53
2023-04-16T05:18:12.549Z,100636.41
2023-04-16T05:20:40.410Z,100621.72
2023-04-16T05:23:08.381Z,100649.22
2023-04-16T05:25:36.930Z,100651.81
2023-04-16T05:28:04.941Z,100644.56
2023-04-16T05:30:32.827Z,100646.19
2023-04-16T05:33:00.800Z,100654.84
2023-04-16T05:35:30.144Z,100650.22
2023-04-16T05:37:57.920Z,100665.56
2023-04-16T05:40:26.189Z,100663.25
2023-04-16T05:42:54.037Z,100678.13
2023-04-16T05:45:22.121Z,100677.06
2023-04-16T05:47:49.953Z,100686.97
2023-04-16T05:50:17.959Z,100684.28
2023-04-16T05:52:47.190Z,100686.81
2023-04-16T05:55:14.996Z,100651.09
2023-04-16T05:57:42.750Z,100691.56
2023-04-16T06:00:11.009Z,100687.13
2023-04-16T06:02:41.938Z,100691.56
2023-04-16T06:05:10.158Z,100693.13
2023-04-16T06:07:38.051Z,100701.59
2023-04-16T06:10:08.275Z,100700.59
2023-04-16T06:12:36.206Z,100707.03
2023-04-16T06:15:04.163Z,100706.84
2023-04-16T06:17:32.079Z,100709.06
2023-04-16T06:19:59.952Z,100707.97
2023-04-16T06:22:27.972Z,100706.94
2023-04-16T06:24:55.787Z,100711.41
2023-04-16T06:27:25.835Z,100719.53
2023-04-16T06:29:53.682Z,100722.41
2023-04-16T06:32:21.681Z,100719.84
2023-04-16T06:34:49.585Z,100716.94
2023-04-16T06:37:17.440Z,100706.25
2023-04-16T06:39:45.255Z,100720.59
2023-04-16T06:42:13.182Z,100702.19
2023-04-16T06:44:42.465Z,100724.91
2023-04-16T06:47:10.401Z,100728.50
2023-04-16T06:49:39.458Z,100698.59
2023-04-16T06:52:07.576Z,100726.69
2023-04-16T06:54:35.444Z,100712.28
2023-04-16T06:57:03.190Z,100735.34
2023-04-16T06:59:31.065Z,100737.81
2023-04-16T07:02:00.320Z,100735.59
2023-04-16T07:04:28.255Z,100731.53
2023-04-16T07:06:56.203Z,100735.78
2023-04-16T07:09:23.985Z,100664.28
2023-04-16T07:11:51.925Z,100736.44
2023-04-16T07:14:19.755Z,100753.34
2023-04-16T07:16:47.568Z,100761.38
2023-04-16T07:19:16.824Z,100756.47
2023-04-16T07:21:44.741Z,100749.72
2023-04-16T07:24:14.144Z,100756.44
2023-04-16T07:26:41.992Z,100706.25
2023-04-16T07:29:10.099Z,100748.16
2023-04-16T07:31:38.212Z,100762.38
2023-04-16T07:34:06.784Z,100764.25
2023-04-16T07:36:36.171Z,100763.41
2023-04-16T07:39:05.667Z,100771.53
2023-04-16T07:41:33.685Z,100769.28
2023-04-16T07:44:01.861Z,100764.78
2023-04-16T07:46:39.366Z,100780.63
2023-04-16T07:49:13.821Z,100781.19
2023-04-16T07:51:43.148Z,100785.28
2023-04-16T07:54:11.516Z,100777.25
2023-04-16T07:56:39.437Z,100782.31
2023-04-16T07:59:21.181Z,100796.16
2023-04-16T08:01:50.462Z,100794.50
2023-04-16T08:04:24.344Z,100782.06
2023-04-16T08:06:54.564Z,100802.41
2023-04-16T08:09:24.408Z,100800.03
2023-04-16T08:11:52.334Z,100812.16
2023-04-16T08:14:20.323Z,100803.38
2023-04-16T08:16:48.176Z,100822.47
2023-04-16T08:19:16.084Z,100792.50
2023-04-16T08:21:44.044Z,100797.09
2023-04-16T08:24:13.259Z,100825.06
2023-04-16T08:26:41.160Z,100822.63
2023-04-16T08:29:09.185Z,100819.47
2023-04-16T08:31:37.471Z,100831.41
2023-04-16T08:34:05.939Z,100776.34
2023-04-16T08:36:33.818Z,100835.50
2023-04-16T08:39:01.636Z,100833.75
2023-04-16T08:41:32.671Z,100836.34
2023-04-16T08:44:05.864Z,100837.00
2023-04-16T08:46:37.337Z,100781.75
2023-04-16T08:49:07.850Z,100835.31
2023-04-16T08:51:36.909Z,100846.75
2023-04-16T08:54:09.603Z,100819.25
2023-04-16T08:56:42.951Z,100842.13
2023-04-16T08:59:11.656Z,100846.41
2023-04-16T09:01:41.824Z,100843.78
2023-04-16T09:04:10.873Z,100855.44
2023-04-16T09:06:41.416Z,100846.44
2023-04-16T09:09:10.852Z,100839.22
2023-04-16T09:11:40.608Z,100864.41
2023-04-16T09:14:12.135Z,100857.47
2023-04-16T09:16:40.953Z,100859.41
2023-04-16T09:19:09.250Z,100861.75
2023-04-16T09:21:38.119Z,100844.91
2023-04-16T09:24:06.525Z,100853.69
2023-04-16T09:26:35.206Z,100834.81
2023-04-16T09:29:04.446Z,100859.63
2023-04-16T09:31:32.374Z,100858.25
2023-04-16T09:34:04.890Z,100867.97
2023-04-16T09:36:33.566Z,100862.97
2023-04-16T09:39:01.805Z,100810.06
2023-04-16T09:41:31.201Z,100861.72
2023-04-16T09:44:00.473Z,100872.38
2023-04-16T09:46:35.244Z,100867.88
2023-04-16T09:49:06.506Z,100792.94
2023-04-16T09:51:38.516Z,100882.34
2023-04-16T09:54:06.654Z,100870.97
2023-04-16T09:56:34.882Z,100861.19
2023-04-16T09:59:02.742Z,100884.16
2023-04-16T10:01:33.350Z,100852.78
2023-04-16T10:04:01.507Z,100800.19
2023-04-16T10:06:31.203Z,100889.25
2023-04-16T10:08:59.070Z,100774.59
2023-04-16T10:11:27.083Z,100900.50
2023-04-16T10:13:55.164Z,100874.78
2023-04-16T10:16:23.985Z,100897.09
2023-04-16T10:18:55.071Z,100897.00
2023-04-16T10:21:23.971Z,100897.72
2023-04-16T10:23:52.735Z,100907.19
2023-04-16T10:26:21.285Z,100802.06
2023-04-16T10:28:49.422Z,100865.16
2023-04-16T10:31:18.367Z,100912.53
2023-04-16T10:33:46.890Z,100909.41
2023-04-16T10:36:18.463Z,100912.88
2023-04-16T10:38:47.610Z,100908.94
2023-04-16T10:41:15.740Z,100893.03
2023-04-16T10:43:45.366Z,100914.13
2023-04-16T10:46:19.697Z,100868.72
2023-04-16T10:48:50.452Z,100920.72
2023-04-16T10:51:28.014Z,100897.56
2023-04-16T10:53:57.026Z,100913.63
2023-04-16T10:56:26.177Z,100916.50
2023-04-16T10:58:56.013Z,100885.84
2023-04-16T11:01:31.558Z,100918.41
2023-04-16T11:04:02.218Z,100888.69
2023-04-16T11:06:32.255Z,100917.56
2023-04-16T11:09:00.253Z,100924.09
2023-04-16T11:11:37.224Z,100916.00
2023-04-16T11:14:06.631Z,100908.38
2023-04-16T11:16:34.428Z,100869.19
2023-04-16T11:19:02.487Z,100919.09
2023-04-16T11:21:33.734Z,100919.72
2023-04-16T11:24:01.612Z,100913.97
2023-04-16T11:26:30.662Z,100922.69
2023-04-16T11:29:00.162Z,100924.13
2023-04-16T11:31:28.252Z,100915.69
2023-04-16T11:33:57.908Z,100923.88
2023-04-16T11:36:27.766Z,100926.31
2023-04-16T11:39:04.676Z,100919.91
2023-04-16T11:41:32.641Z,100929.91
2023-04-16T11:44:00.586Z,100907.88
2023-04-16T11:46:40.615Z,100930.47
2023-04-16T11:49:09.499Z,100923.63
2023-04-16T11:51:41.336Z,100929.91
2023-04-16T11:54:12.158Z,100935.00
2023-04-16T11:56:46.701Z,100932.06
2023-04-16T11:59:16.598Z,100938.13
2023-04-16T12:01:49.551Z,100940.81
2023-04-16T12:04:20.196Z,100948.16
2023-04-16T12:07:08.241Z,100938.41
2023-04-16T12:09:40.423Z,100950.06
2023-04-16T12:12:26.658Z,100953.41
2023-04-16T12:14:56.854Z,100937.03
2023-04-16T12:17:25.281Z,100950.22
2023-04-16T12:19:57.169Z,100945.63
2023-04-16T12:22:31.841Z,100952.75
2023-04-16T12:25:03.009Z,100956.44
2023-04-16T12:27:45.793Z,100928.50
2023-04-16T12:30:14.965Z,100864.16
2023-04-16T12:32:43.830Z,100954.69
2023-04-16T12:35:12.152Z,100913.56
2023-04-16T12:37:40.622Z,100957.63
2023-04-16T12:40:11.012Z,100851.59
2023-04-16T12:42:38.974Z,100960.28
2023-04-16T12:45:07.628Z,100958.75
2023-04-16T12:47:35.621Z,100949.28
2023-04-16T12:50:03.658Z,100941.78
2023-04-16T12:52:31.515Z,100963.31
2023-04-16T12:54:59.473Z,100961.75
2023-04-16T12:57:29.491Z,100949.44
2023-04-16T12:59:57.564Z,100969.88
2023-04-16T13:02:26.224Z,100940.94
2023-04-16T13:04:55.484Z,100972.69
2023-04-16T13:07:24.383Z,100958.31
2023-04-16T13:09:52.622Z,100970.06
2023-04-16T13:12:20.954Z,100956.28
2023-04-16T13:14:50.507Z,100968.38
2023-04-16T13:17:18.766Z,100973.34
2023-04-16T13:19:46.883Z,100966.41
2023-04-16T13:22:15.129Z,100961.69
2023-04-16T13:24:43.162Z,100961.44
2023-04-16T13:27:11.338Z,100972.22
2023-04-16T13:29:39.316Z,100964.31
2023-04-16T13:32:08.873Z,100961.19
2023-04-16T13:34:36.895Z,100951.66
2023-04-16T13:37:05.018Z,100948.16
2023-04-16T13:39:32.964Z,100961.94
2023-04-16T13:42:01.299Z,100941.84
2023-04-16T13:44:29.179Z,100967.03
2023-04-16T13:46:57.242Z,100963.47
2023-04-16T13:49:26.754Z,100968.94
2023-04-16T13:51:54.704Z,100964.28
2023-04-16T13:54:22.557Z,100925.66
2023-04-16T13:56:51.180Z,100969.75
2023-04-16T13:59:20.328Z,100962.03
2023-04-16T14:01:48.301Z,100969.16
2023-04-16T14:04:16.318Z,100964.94
2023-04-16T14:06:45.681Z,100905.34
2023-04-16T14:09:13.595Z,100966.88
2023-04-16T14:11:41.581Z,100867.84
2023-04-16T14:14:09.505Z,100966.63
2023-04-16T14:16:37.731Z,100919.78
2023-04-16T14:19:05.751Z,100947.66
2023-04-16T14:21:33.643Z,100963.09
2023-04-16T14:24:04.236Z,100973.19
2023-04-16T14:26:32.108Z,100964.41
2023-04-16T14:28:59.988Z,100972.38
2023-04-16T14:31:27.881Z,100933.16
2023-04-16T14:33:55.737Z,100930.44
2023-04-16T14:36:23.577Z,100937.38
2023-04-16T14:38:51.441Z,100933.59
2023-04-16T14:41:20.867Z,100948.63
2023-04-16T14:43:48.715Z,100920.66
2023-04-16T14:46:17.558Z,100967.19
2023-04-16T14:48:46.018Z,100965.91
2023-04-16T14:51:13.904Z,100963.41
2023-04-16T14:53:41.978Z,100961.50
2023-04-16T14:56:12.871Z,100962.53
2023-04-16T14:58:42.947Z,100945.53
2023-04-16T15:01:10.944Z,100963.97
2023-04-16T15:03:38.992Z,100861.91
2023-04-16T15:06:07.111Z,100946.63
2023-04-16T15:08:36.655Z,100960.66
2023-04-16T15:11:04.606Z,100957.19
2023-04-16T15:13:34.584Z,100966.00
2023-04-16T15:16:04.515Z,100956.09
2023-04-16T15:18:32.486Z,100928.38
2023-04-16T15:21:00.574Z,100958.03
2023-04-16T15:23:29.487Z,100949.81
2023-04-16T15:25:57.936Z,100960.44
2023-04-16T15:28:26.235Z,100960.72
2023-04-16T15:30:54.181Z,100943.56
2023-04-16T15:33:23.571Z,100967.03
2023-04-16T15:35:52.593Z,100964.09
2023-04-16T15:38:21.961Z,100946.44
2023-04-16T15:40:50.904Z,100967.84
2023-04-16T15:43:18.899Z,100963.63
2023-04-16T15:45:47.203Z,100965.00
2023-04-16T15:48:15.569Z,100967.69
2023-04-16T15:50:45.134Z,100962.44
2023-04-16T15:53:13.880Z,100953.88
2023-04-16T15:55:43.826Z,100962.00
2023-04-16T15:58:12.493Z,100953.88
2023-04-16T16:00:40.511Z,100974.28
2023-04-16T16:03:09.612Z,100972.59
2023-04-16T16:05:37.891Z,100974.28
2023-04-16T16:08:07.674Z,100956.13
2023-04-16T16:10:35.843Z,100981.53
2023-04-16T16:13:06.066Z,100964.44
2023-04-16T16:15:33.799Z,100990.34
2023-04-16T16:18:01.781Z,100977.44
2023-04-16T16:20:29.819Z,100984.53
2023-04-16T16:22:58.044Z,100992.81
2023-04-16T16:25:27.424Z,100964.72
2023-04-16T16:27:55.414Z,100983.25
2023-04-16T16:30:23.288Z,100940.03
2023-04-16T16:32:51.233Z,100996.59
2023-04-16T16:35:19.163Z,100995.78
2023-04-16T16:37:47.197Z,100945.75
2023-04-16T16:40:15.088Z,100991.06
2023-04-16T16:42:44.496Z,100964.72
2023-04-16T16:45:12.685Z,100991.31
2023-04-16T16:47:40.777Z,100991.50
2023-04-16T16:50:11.399Z,100981.56
2023-04-16T16:52:39.401Z,100974.06
2023-04-16T16:55:10.983Z,100928.50
2023-04-16T16:57:39.194Z,100988.50
2023-04-16T17:00:14.339Z,100979.84
2023-04-16T17:02:42.445Z,100988.31
2023-04-16T17:05:11.060Z,101002.47
2023-04-16T17:07:39.226Z,100963.06
2023-04-16T17:10:08.018Z,101003.22
2023-04-16T17:12:36.667Z,100994.75
2023-04-16T17:15:04.968Z,100999.16
2023-04-16T17:17:34.208Z,100997.41
2023-04-16T17:20:04.215Z,100973.53
2023-04-16T17:22:32.173Z,100978.88
2023-04-16T17:25:02.282Z,100992.16
2023-04-16T17:27:33.677Z,101003.44
2023-04-16T17:30:01.922Z,100979.81
2023-04-16T17:32:32.445Z,100992.56
2023-04-16T17:35:04.167Z,100960.16
2023-04-16T17:37:32.475Z,100989.91
2023-04-16T17:40:00.481Z,101005.84
2023-04-16T17:42:28.420Z,101014.16
2023-04-16T17:44:56.377Z,100965.63
2023-04-16T17:47:24.238Z,101022.72
2023-04-16T17:49:54.093Z,101016.44
2023-04-16T17:52:23.576Z,100992.69
2023-04-16T17:54:53.164Z,100999.69
2023-04-16T17:57:21.178Z,101002.53
2023-04-16T17:59:49.131Z,101019.34
2023-04-16T18:02:17.177Z,101039.47
2023-04-16T18:04:46.175Z,101044.91
2023-04-16T18:07:15.373Z,101047.59
2023-04-16T18:09:44.657Z,101051.88
2023-04-16T18:12:12.991Z,101045.03
2023-04-16T18:14:44.463Z,101056.78
2023-04-16T18:17:13.021Z,101055.50
2023-04-16T18:19:43.750Z,101049.69
2023-04-16T18:22:13.238Z,101065.13
2023-04-16T18:24:41.289Z,101072.72
2023-04-16T18:27:10.761Z,101005.34
2023-04-16T18:29:40.110Z,101045.84
2023-04-16T18:32:11.776Z,101076.41
2023-04-16T18:34:40.534Z,101077.91
2023-04-16T18:37:08.872Z,101074.34
2023-04-16T18:39:36.943Z,101037.81
2023-04-16T18:42:05.250Z,101066.19
2023-04-16T18:44:34.738Z,101080.06
2023-04-16T18:47:02.828Z,101031.59
2023-04-16T18:49:30.810Z,101062.88
2023-04-16T18:51:58.697Z,101074.50
2023-04-16T18:54:27.632Z,101082.31
2023-04-16T18:56:57.333Z,101084.09
2023-04-16T18:59:26.078Z,101086.59
2023-04-16T19:01:55.436Z,101093.66
2023-04-16T19:04:23.325Z,101077.88
2023-04-16T19:06:51.182Z,101092.66
2023-04-16T19:09:19.962Z,101094.38
2023-04-16T19:11:50.564Z,101053.03
2023-04-16T19:14:18.605Z,101096.22
2023-04-16T19:16:47.507Z,101048.03
2023-04-16T19:19:17.870Z,101096.22
2023-04-16T19:21:45.540Z,101096.31
2023-04-16T19:24:13.552Z,101099.44
2023-04-16T19:26:41.395Z,101085.31
2023-04-16T19:29:09.419Z,100913.78
2023-04-16T19:31:37.559Z,101101.09
2023-04-16T19:34:05.786Z,101090.53
2023-04-16T19:36:35.060Z,101046.63
2023-04-16T19:39:03.776Z,101110.19
2023-04-16T19:41:31.676Z,101114.66
2023-04-16T19:43:59.572Z,101119.06
2023-04-16T19:46:27.445Z,101114.66
2023-04-16T19:48:56.690Z,101116.50
2023-04-16T19:51:24.655Z,101118.25
2023-04-16T19:53:54.078Z,101118.31
2023-04-16T19:56:22.011Z,101125.47
2023-04-16T19:58:49.901Z,101103.09
2023-04-16T20:01:17.810Z,101116.25
2023-04-16T20:03:45.803Z,101111.88
2023-04-16T20:06:13.737Z,101113.63
2023-04-16T20:08:41.641Z,101102.88
2023-04-16T20:11:12.165Z,101120.66
2023-04-16T20:13:40.022Z,101121.28
2023-04-16T20:16:09.246Z,101120.28
2023-04-16T20:18:41.273Z,101124.88
2023-04-16T20:21:10.594Z,101100.13
2023-04-16T20:23:38.464Z,101120.34
2023-04-16T20:26:06.367Z,101123.88
2023-04-16T20:28:36.206Z,101127.31
2023-04-16T20:31:04.067Z,101087.94
2023-04-16T20:33:31.919Z,101126.53
2023-04-16T20:35:59.818Z,101050.19
2023-04-16T20:38:32.279Z,101132.25
2023-04-16T20:41:09.875Z,101122.38
2023-04-16T20:43:40.838Z,101131.47
2023-04-16T20:46:08.974Z,101040.06
2023-04-16T20:48:36.820Z,101076.16
2023-04-16T20:51:06.303Z,101127.09
2023-04-16T20:53:34.482Z,101121.78
2023-04-16T20:56:02.336Z,101089.47
2023-04-16T20:58:30.573Z,101073.38
2023-04-16T21:00:59.824Z,101121.94
2023-04-16T21:03:27.831Z,101127.31
2023-04-16T21:05:56.596Z,101049.00
2023-04-16T21:08:25.524Z,101099.44
2023-04-16T21:10:53.469Z,101122.09
2023-04-16T21:13:21.824Z,101038.53
2023-04-16T21:15:49.860Z,101129.38
2023-04-16T21:18:19.374Z,101130.19
2023-04-16T21:20:47.373Z,101130.41
2023-04-16T21:23:15.465Z,101122.41
2023-04-16T21:25:43.264Z,101121.41
2023-04-16T21:28:11.076Z,101125.84
2023-04-16T21:30:39.275Z,101048.78
2023-04-16T21:33:07.569Z,101144.00
2023-04-16T21:35:36.751Z,101146.91
2023-04-16T21:38:04.633Z,101140.63
2023-04-16T21:40:32.410Z,101145.16
2023-04-16T21:43:00.250Z,101138.84
2023-04-16T21:45:29.978Z,101141.63
2023-04-16T21:47:58.203Z,101143.25
2023-04-16T21:50:26.078Z,101111.66
2023-04-16T21:52:55.332Z,101146.72
2023-04-16T21:55:23.388Z,101140.41
2023-04-16T21:57:51.205Z,101144.00
2023-04-16T22:00:21.028Z,101132.72
2023-04-16T22:02:49.083Z,101140.66
2023-04-16T22:05:17.317Z,101140.63
2023-04-16T22:07:45.132Z,101151.34
2023-04-16T22:10:15.249Z,101123.91
2023-04-16T22:12:44.833Z,101146.03
2023-04-16T22:15:13.858Z,101138.91
2023-04-16T22:17:42.493Z,101145.19
2023-04-16T22:20:12.896Z,101126.38
2023-04-16T22:22:40.964Z,101143.16
2023-04-16T22:25:09.857Z,101066.84
2023-04-16T22:27:39.598Z,101143.16
2023-04-16T22:30:09.146Z,101129.91
2023-04-16T22:32:37.027Z,101142.84
2023-04-16T22:35:05.369Z,101145.53
2023-04-16T22:37:33.488Z,101139.63
2023-04-16T22:40:01.582Z,101144.09
2023-04-16T22:42:29.374Z,101141.44
2023-04-16T22:44:58.725Z,101151.25
2023-04-16T22:47:26.486Z,101145.88
2023-04-16T22:49:54.324Z,101137.13
2023-04-16T22:52:22.250Z,101112.66
2023-04-16T22:54:50.018Z,101149.06
2023-04-16T22:57:21.033Z,101151.63
2023-04-16T22:59:48.907Z,101145.16
2023-04-16T23:02:18.242Z,101120.69
2023-04-16T23:04:48.053Z,101119.84
2023-04-16T23:07:16.264Z,101146.41
2023-04-16T23:09:44.111Z,101114.34
2023-04-16T23:12:12.027Z,101139.06
2023-04-16T23:14:39.893Z,101137.38
2023-04-16T23:17:07.647Z,101151.34
2023-04-16T23:19:36.804Z,101058.59
2023-04-16T23:22:04.590Z,101140.97
2023-04-16T23:24:32.327Z,101105.72
2023-04-16T23:27:01.078Z,101149.63
2023-04-16T23:29:29.010Z,100916.38
2023-04-16T23:31:58.328Z,101142.50
2023-04-16T23:34:26.185Z,101151.53
2023-04-16T23:36:55.357Z,101150.38
2023-04-16T23:39:23.226Z,101150.63
2023-04-16T23:41:51.431Z,101143.63
2023-04-16T23:44:19.246Z,101150.78
2023-04-16T23:46:47.067Z,101146.59
2023-04-16T23:49:14.935Z,101124.41
2023-04-16T23:51:42.908Z,101150.00
2023-04-16T23:54:12.118Z,101139.97
2023-04-16T23:56:40.004Z,101151.53
2023-04-16T23:59:10.816Z,101153.47
